WetterOnline ( https://www.wetteronline.de )

Wetter aktuell Spreetal

Aktuelles Wetter: Hoyerswerda (116m)

6-stündlich | Neueste Meldungen
Ortszeit Temperatur Wetter
Do, 22.10. 8:00 12.9° C bedeckt
Do, 22.10. 2:00 13.7° C bedeckt
Mi, 21.10. 20:00 12.7° C -
Mi, 21.10. 14:00 13.7° C bewölkt
Mi, 21.10. 8:00 10.5° C leichter Regen
Mi, 21.10. 2:00 11.4° C leichter Regen
Di, 20.10. 20:00 10.6° C bedeckt
Di, 20.10. 14:00 11.2° C wolkig
Ortszeit Temperatur Wetter
Do, 22.10. 13:30 20.2° C leicht bewölkt
Do, 22.10. 13:20 20.2° C leicht bewölkt
Do, 22.10. 13:10 19.7° C fast wolkenlos
Do, 22.10. 13:00 19.7° C wolkenlos
Do, 22.10. 12:50 19.7° C wolkenlos
Do, 22.10. 12:40 19.8° C wolkenlos
Do, 22.10. 12:30 18.9° C leicht bewölkt
Do, 22.10. 12:00 17.5° C leicht bewölkt
Do, 22.10. 11:30 16.4° C wolkig
Do, 22.10. 11:00 15.8° C leicht bewölkt
Do, 22.10. 10:30 15.0° C leicht bewölkt
Ortszeit Relative Feuchte Sichtweite
Do, 22.10. 8:00 76% 23 km
Do, 22.10. 2:00 68% 28 km
Mi, 21.10. 20:00 70% 23 km
Mi, 21.10. 14:00 64% 30 km
Mi, 21.10. 8:00 75% 35 km
Mi, 21.10. 2:00 76% 29 km
Di, 20.10. 20:00 75% 27 km
Di, 20.10. 14:00 67% 45 km
Ortszeit Relative Feuchte Sichtweite
Do, 22.10. 13:30 60% 45 km
Do, 22.10. 13:20 60% -
Do, 22.10. 13:10 60% -
Do, 22.10. 13:00 60% 40 km
Do, 22.10. 12:50 60% -
Do, 22.10. 12:40 60% -
Do, 22.10. 12:30 63% 30 km
Do, 22.10. 12:00 67% 30 km
Do, 22.10. 11:30 70% 30 km
Do, 22.10. 11:00 70% 30 km
Do, 22.10. 10:30 73% 28 km
Ortszeit Niederschlagsmenge Niederschlagsart
Do, 22.10. 8:00 0.0 l/m2 in 12 Std. -
Do, 22.10. 2:00 0.0 l/m2 in 6 Std. -
Mi, 21.10. 20:00 0.1 l/m2 in 12 Std. -
Mi, 21.10. 14:00 0.1 l/m2 in 6 Std. Regen
Mi, 21.10. 8:00 0.1 l/m2 in 12 Std. Regen
Mi, 21.10. 2:00 0.1 l/m2 in 6 Std. Regen
Di, 20.10. 20:00 0.0 l/m2 in 12 Std. -
Di, 20.10. 14:00 0.0 l/m2 in 6 Std. -
Ortszeit Niederschlagsmenge Niederschlagsart
Do, 22.10. 13:30 0.0 l/m2 in 1 Std. -
Do, 22.10. 13:20 keine Meldung -
Do, 22.10. 13:10 keine Meldung -
Do, 22.10. 13:00 0.0 l/m2 in 1 Std. -
Do, 22.10. 12:50 keine Meldung -
Do, 22.10. 12:40 keine Meldung -
Do, 22.10. 12:30 0.0 l/m2 in 1 Std. -
Do, 22.10. 12:00 0.0 l/m2 in 1 Std. -
Do, 22.10. 11:30 0.0 l/m2 in 1 Std. -
Do, 22.10. 11:00 0.0 l/m2 in 1 Std. -
Do, 22.10. 10:30 0.0 l/m2 in 1 Std. -
Ortszeit Stärke Spitze Richtung
km/h Bft. km/h Grad Sektor
Do, 22.10. 8:00 7 2 29 180° S
Do, 22.10. 2:00 11 2 36 180° S
Mi, 21.10. 20:00 14 3 40 170° S
Mi, 21.10. 14:00 15 3 31 180° S
Mi, 21.10. 8:00 11 2 36 170° S
Mi, 21.10. 2:00 13 3 28 180° S
Di, 20.10. 20:00 11 2 36 170° S
Di, 20.10. 14:00 19 3 35 170° S
Ortszeit Stärke Spitze Richtung
km/h Bft. km/h Grad Sektor
Do, 22.10. 13:30 11 2 25 210° SW
Do, 22.10. 13:20 11 2 - 210° SW
Do, 22.10. 13:10 14 3 - 200° S
Do, 22.10. 13:00 14 3 25 210° SW
Do, 22.10. 12:50 14 3 - 210° SW
Do, 22.10. 12:40 14 3 - 210° SW
Do, 22.10. 12:30 11 2 20 200° S
Do, 22.10. 12:00 7 2 18 180° S
Do, 22.10. 11:30 9 2 19 190° S
Do, 22.10. 11:00 11 2 22 180° S
Do, 22.10. 10:30 11 2 22 170° S
Ortszeit Untergrenze Bedeckung Gattung
total tief tief mittel hoch
Do, 22.10. 8:00 6600 m 8/8 8/8 - - -
Do, 22.10. 2:00 3900 m 8/8 8/8 - - -
Mi, 21.10. 20:00 - - - - - -
Mi, 21.10. 14:00 2400 m 7/8 8/8 - - -
Mi, 21.10. 8:00 2700 m 8/8 8/8 - - -
Mi, 21.10. 2:00 2700 m 8/8 6/8 - - -
Di, 20.10. 20:00 5700 m 8/8 8/8 - - -
Di, 20.10. 14:00 5100 m 7/8 1/8 - - -
Ortszeit Bedeckungsgrad in Achtel und Wolkenuntergrenze
Do, 22.10. 13:30 5(8400m) 5(9000m)
Do, 22.10. 13:20 5(8400m) 5(9000m)
Do, 22.10. 13:10 1(8400m)
Do, 22.10. 13:00 keine Wolken
Do, 22.10. 12:50 keine Wolken
Do, 22.10. 12:40 keine Wolken
Do, 22.10. 12:30 1(7200m) 4(10500m) 2(10500m)
Do, 22.10. 12:00 6(7500m) 6(9000m) 8(10500m)
Do, 22.10. 11:30 3(7800m) 5(8400m) 7(9000m)
Do, 22.10. 11:00 3(7200m) 6(9000m) 8(10500m)
Do, 22.10. 10:30 1(6300m) 5(8100m) 5(10500m)
Ortszeit Luftdruck NN (hPa) Tendenz (hPa in 3 Std.)
Do, 22.10. 8:00 1013 + 1,3
Do, 22.10. 2:00 1012 + 0,7
Mi, 21.10. 20:00 1010 + 0,1
Mi, 21.10. 14:00 1011 - 0,5
Mi, 21.10. 8:00 1012 - 0,3
Mi, 21.10. 2:00 1014 - 0,8
Di, 20.10. 20:00 1014 - 0,6
Di, 20.10. 14:00 1017 - 2,0
Ortszeit Luftdruck NN (hPa) Tendenz (hPa in 3 Std.)
Do, 22.10. 13:30 1015 - 0,2
Do, 22.10. 13:20 1015 keine Meldung
Do, 22.10. 13:10 1015 keine Meldung
Do, 22.10. 13:00 1015 + 0,3
Do, 22.10. 12:50 1015 keine Meldung
Do, 22.10. 12:40 1015 keine Meldung
Do, 22.10. 12:30 1015 + 0,9
Do, 22.10. 12:00 1015 + 1,4
Do, 22.10. 11:30 1015 + 1,7
Do, 22.10. 11:00 1015 + 1,9
Do, 22.10. 10:30 1015 + 2,3
Ortszeit Schneehöhe (cm)
Do, 22.10. 8:00 0
Do, 22.10. 2:00 0
Mi, 21.10. 20:00 0
Mi, 21.10. 14:00 0
Mi, 21.10. 8:00 0
Mi, 21.10. 2:00 0
Di, 20.10. 20:00 0
Di, 20.10. 14:00 0
Ortszeit Schneehöhe (cm)
Do, 22.10. 13:30 0
Do, 22.10. 13:20 0
Do, 22.10. 13:10 0
Do, 22.10. 13:00 0
Do, 22.10. 12:50 0
Do, 22.10. 12:40 0
Do, 22.10. 12:30 0
Do, 22.10. 12:00 0
Do, 22.10. 11:30 0
Do, 22.10. 11:00 0
Do, 22.10. 10:30 0
Link zu dieser Seite / Seite empfehlen

Das Wetter in ...